Time;durP1;ratioP1;P1;durP2;ratioP2;P2;SDS_P1;SDS_P2;PMS_P1;PMS_P2;Temp;Humidity;BMP_temperature;BMP_pressure;BME280_temperature;BME280_humidity;BME280_pressure;Samples;Min_cycle;Max_cycle;Signal;HPM_P1;HPM_P2
2023/03/11 00:02:15;;;;;;;;;;;4.80;99.90;;;;;;6183504;23;20647;-82
2023/03/11 00:04:41;;;;;;;;;;;4.80;99.90;;;;;;6210520;23;19900;-82
2023/03/11 00:07:08;;;;;;;;;;;4.70;99.90;;;;;;6210113;23;19907;-83
2023/03/11 00:09:34;;;;;;;;;;;4.80;99.90;;;;;;6209972;23;19970;-82
2023/03/11 00:11:59;;;;;;;;;;;4.80;99.90;;;;;;6210752;23;19935;-83
2023/03/11 00:14:25;;;;;;;;;;;4.90;99.90;;;;;;6211364;23;19900;-82
2023/03/11 00:16:50;;;;;;;;;;;4.80;99.90;;;;;;6211020;23;19904;-83
2023/03/11 00:19:16;;;;;;;;;;;4.90;99.90;;;;;;6210420;23;20162;-82
2023/03/11 00:21:41;;;;;;;;;;;4.90;99.90;;;;;;6208792;23;19904;-82
2023/03/11 00:24:07;;;;;;;;;;;4.90;99.90;;;;;;6210230;23;19907;-82
2023/03/11 00:26:33;;;;;;;;;;;4.90;99.90;;;;;;6209707;23;19899;-82
2023/03/11 00:28:58;;;;;;;;;;;4.80;99.90;;;;;;6209995;23;19900;-82
2023/03/11 00:31:25;;;;;;;;;;;4.70;99.90;;;;;;6210972;23;19907;-82
2023/03/11 00:33:51;;;;;;;;;;;4.60;99.90;;;;;;6210294;23;19904;-82
2023/03/11 00:36:27;;;;;;;;;;;4.50;99.90;;;;;;6210051;23;19942;-82
2023/03/11 00:38:53;;;;;;;;;;;4.50;99.90;;;;;;6209621;23;20293;-82
2023/03/11 00:41:18;;;;;;;;;;;4.40;99.90;;;;;;6209614;23;19904;-81
2023/03/11 00:43:44;;;;;;;;;;;4.40;99.90;;;;;;6209898;23;19928;-83
2023/03/11 00:46:10;;;;;;;;;;;4.40;99.90;;;;;;6209966;23;19903;-83
2023/03/11 00:48:35;;;;;;;;;;;4.40;99.90;;;;;;6210256;23;20059;-81
2023/03/11 00:51:00;;;;;;;;;;;4.30;99.90;;;;;;6210065;23;20359;-82
2023/03/11 00:53:26;;;;;;;;;;;4.30;99.90;;;;;;6210645;23;19900;-83
2023/03/11 00:55:51;;;;;;;;;;;4.30;99.90;;;;;;6209606;23;19899;-84
2023/03/11 00:58:17;;;;;;;;;;;4.50;99.90;;;;;;6209501;23;19900;-83
2023/03/11 01:00:42;;;;;;;;;;;4.60;99.90;;;;;;6210060;23;19984;-83
2023/03/11 01:03:08;;;;;;;;;;;4.70;99.90;;;;;;6210900;23;19930;-83
2023/03/11 01:05:34;;;;;;;;;;;4.80;99.90;;;;;;6210758;23;19946;-84
2023/03/11 01:08:00;;;;;;;;;;;4.80;99.90;;;;;;6211045;23;19927;-83
2023/03/11 01:10:28;;;;;;;;;;;4.70;99.90;;;;;;6210631;23;19908;-83
2023/03/11 01:12:54;;;;;;;;;;;5.50;99.90;;;;;;6210210;23;19911;-83
2023/03/11 01:15:25;;;;;;;;;;;4.80;99.90;;;;;;6210740;23;20137;-84
2023/03/11 01:17:50;;;;;;;;;;;4.80;99.90;;;;;;6210670;23;19915;-83
2023/03/11 01:20:16;;;;;;;;;;;4.90;99.90;;;;;;6210519;23;19908;-83
2023/03/11 01:22:42;;;;;;;;;;;4.80;99.90;;;;;;6210662;23;19900;-82
2023/03/11 01:25:09;;;;;;;;;;;4.80;99.90;;;;;;6209452;23;19982;-83
2023/03/11 01:27:34;;;;;;;;;;;4.90;99.90;;;;;;6210113;23;19920;-84
2023/03/11 01:30:01;;;;;;;;;;;4.80;99.90;;;;;;6211641;23;19914;-83
2023/03/11 01:32:26;;;;;;;;;;;4.90;99.90;;;;;;6211684;23;19907;-83
2023/03/11 01:34:52;;;;;;;;;;;4.90;99.90;;;;;;6210136;23;19900;-83
2023/03/11 01:37:19;;;;;;;;;;;5.00;99.90;;;;;;6210307;23;19900;-83
2023/03/11 01:39:44;;;;;;;;;;;4.90;99.90;;;;;;6210757;23;20354;-82
2023/03/11 01:42:10;;;;;;;;;;;4.90;99.90;;;;;;6211920;23;19986;-82
2023/03/11 01:44:35;;;;;;;;;;;4.90;99.90;;;;;;6212545;23;19907;-83
2023/03/11 01:47:01;;;;;;;;;;;4.90;99.90;;;;;;6213364;23;20029;-84
2023/03/11 01:49:27;;;;;;;;;;;5.00;99.90;;;;;;6185706;23;20034;-83
2023/03/11 01:51:55;;;;;;;;;;;5.00;99.90;;;;;;6211402;23;20337;-83
2023/03/11 01:54:23;;;;;;;;;;;5.00;99.90;;;;;;6211772;23;19904;-83
2023/03/11 01:56:49;;;;;;;;;;;4.90;99.90;;;;;;6211962;23;19951;-83
2023/03/11 01:59:18;;;;;;;;;;;4.90;99.90;;;;;;6212343;23;19946;-83
2023/03/11 02:02:03;;;;;;;;;;;4.90;99.90;;;;;;6211952;23;19900;-83
2023/03/11 02:04:32;;;;;;;;;;;4.90;99.90;;;;;;6211552;23;19927;-83
2023/03/11 02:06:58;;;;;;;;;;;4.90;99.90;;;;;;6212372;23;19900;-83
2023/03/11 02:09:25;;;;;;;;;;;4.90;99.90;;;;;;6211801;23;19919;-84
2023/03/11 02:11:51;;;;;;;;;;;4.90;99.90;;;;;;6212013;23;19914;-84
2023/03/11 02:14:17;;;;;;;;;;;5.00;99.90;;;;;;6212063;23;19906;-82
2023/03/11 02:16:42;;;;;;;;;;;4.80;99.90;;;;;;6210840;23;19900;-82
2023/03/11 02:19:17;;;;;;;;;;;4.90;99.90;;;;;;6210918;23;19910;-83
2023/03/11 02:21:42;;;;;;;;;;;4.90;99.90;;;;;;6211332;23;20005;-83
2023/03/11 02:24:14;;;;;;;;;;;4.80;99.90;;;;;;6212152;23;19935;-83
2023/03/11 02:26:42;;;;;;;;;;;4.80;99.90;;;;;;6211648;23;19945;-83
2023/03/11 02:29:09;;;;;;;;;;;4.80;99.90;;;;;;6211906;23;19900;-83
2023/03/11 02:31:37;;;;;;;;;;;4.90;99.90;;;;;;6211549;23;19930;-83
2023/03/11 02:34:04;;;;;;;;;;;4.90;99.90;;;;;;6212069;23;19906;-83
2023/03/11 02:36:40;;;;;;;;;;;4.90;99.90;;;;;;6212944;23;19906;-83
2023/03/11 02:39:07;;;;;;;;;;;4.90;99.90;;;;;;6211898;23;19900;-83
2023/03/11 02:41:34;;;;;;;;;;;4.90;99.90;;;;;;6212213;23;19931;-83
2023/03/11 02:44:00;;;;;;;;;;;4.90;99.90;;;;;;6211841;23;19900;-83
2023/03/11 02:46:25;;;;;;;;;;;4.80;99.90;;;;;;6210792;23;20382;-83
2023/03/11 02:48:51;;;;;;;;;;;4.90;99.90;;;;;;6211476;23;19935;-84
2023/03/11 02:51:17;;;;;;;;;;;4.80;99.90;;;;;;6211778;23;19907;-83
2023/03/11 02:53:45;;;;;;;;;;;4.90;99.90;;;;;;6211020;23;20321;-82
2023/03/11 02:56:10;;;;;;;;;;;4.80;99.90;;;;;;6211115;23;19910;-83
2023/03/11 02:58:36;;;;;;;;;;;4.90;99.90;;;;;;6211857;23;19935;-82
2023/03/11 03:01:02;;;;;;;;;;;4.90;99.90;;;;;;6212930;23;19929;-83
2023/03/11 03:03:27;;;;;;;;;;;4.80;99.90;;;;;;6211870;23;19904;-83
2023/03/11 03:05:53;;;;;;;;;;;4.90;99.90;;;;;;6211880;23;19904;-83
2023/03/11 03:08:18;;;;;;;;;;;4.90;99.90;;;;;;6211422;23;19904;-83
2023/03/11 03:10:44;;;;;;;;;;;4.70;99.90;;;;;;6211063;23;19954;-83
2023/03/11 03:13:09;;;;;;;;;;;4.90;99.90;;;;;;6210918;23;19923;-83
2023/03/11 03:15:35;;;;;;;;;;;4.70;99.90;;;;;;6212640;23;20243;-83
2023/03/11 03:18:01;;;;;;;;;;;4.80;99.90;;;;;;6212048;23;19904;-83
2023/03/11 03:20:26;;;;;;;;;;;4.90;99.90;;;;;;6210703;23;19912;-83
2023/03/11 03:22:52;;;;;;;;;;;4.90;99.90;;;;;;6211009;23;19906;-83
2023/03/11 03:25:17;;;;;;;;;;;4.90;99.90;;;;;;6211187;23;19900;-82
2023/03/11 03:27:43;;;;;;;;;;;4.70;99.90;;;;;;6211207;23;19899;-83
2023/03/11 03:30:09;;;;;;;;;;;4.40;99.90;;;;;;6211225;23;19926;-82
2023/03/11 03:32:34;;;;;;;;;;;4.40;99.90;;;;;;6212489;23;19904;-82
2023/03/11 03:35:00;;;;;;;;;;;4.30;99.90;;;;;;6210534;23;20329;-82
2023/03/11 03:37:26;;;;;;;;;;;4.40;99.90;;;;;;6210970;23;19900;-82
2023/03/11 03:39:52;;;;;;;;;;;4.30;99.90;;;;;;6210994;23;19900;-82
2023/03/11 03:42:18;;;;;;;;;;;4.30;99.90;;;;;;6210643;23;19903;-83
2023/03/11 03:44:43;;;;;;;;;;;4.60;99.90;;;;;;6211141;23;19900;-82
2023/03/11 03:47:09;;;;;;;;;;;4.40;99.90;;;;;;6211113;23;19900;-82
2023/03/11 03:49:34;;;;;;;;;;;4.50;99.90;;;;;;6211607;23;19900;-82
2023/03/11 03:52:01;;;;;;;;;;;4.60;99.90;;;;;;6210830;23;19954;-82
2023/03/11 03:54:26;;;;;;;;;;;4.60;99.90;;;;;;6211116;23;19925;-82
2023/03/11 03:56:52;;;;;;;;;;;4.70;99.90;;;;;;6210962;23;20316;-82
2023/03/11 03:59:17;;;;;;;;;;;4.70;99.90;;;;;;6210953;23;19899;-82
2023/03/11 04:01:43;;;;;;;;;;;4.70;99.90;;;;;;6210716;23;20317;-82
2023/03/11 04:04:08;;;;;;;;;;;4.70;99.90;;;;;;6211938;23;19900;-82
2023/03/11 04:06:34;;;;;;;;;;;4.80;99.90;;;;;;6211318;23;19900;-83
2023/03/11 04:08:59;;;;;;;;;;;5.10;99.90;;;;;;6210707;23;19911;-83
2023/03/11 04:11:25;;;;;;;;;;;4.90;99.90;;;;;;6210759;23;19908;-82
2023/03/11 04:13:50;;;;;;;;;;;4.40;99.90;;;;;;6210713;23;19935;-82
2023/03/11 04:16:18;;;;;;;;;;;4.90;99.90;;;;;;6210844;23;20241;-82
2023/03/11 04:18:43;;;;;;;;;;;4.90;99.90;;;;;;6210038;23;20214;-81
2023/03/11 04:21:10;;;;;;;;;;;6.20;99.90;;;;;;6211442;23;19915;-82
2023/03/11 04:23:35;;;;;;;;;;;4.90;99.90;;;;;;6211852;23;19904;-81
2023/03/11 04:26:01;;;;;;;;;;;4.90;99.90;;;;;;6211062;23;19911;-84
2023/03/11 04:28:26;;;;;;;;;;;4.90;99.90;;;;;;6210501;23;19900;-84
2023/03/11 04:30:52;;;;;;;;;;;4.90;99.90;;;;;;6210770;23;19908;-83
2023/03/11 04:33:18;;;;;;;;;;;4.90;99.90;;;;;;6211011;23;19899;-83
2023/03/11 04:35:43;;;;;;;;;;;4.90;99.90;;;;;;6210190;23;19899;-82
2023/03/11 04:38:09;;;;;;;;;;;4.90;99.90;;;;;;6211845;23;19927;-83
2023/03/11 04:40:35;;;;;;;;;;;4.90;99.90;;;;;;6210174;23;19923;-83
2023/03/11 04:43:01;;;;;;;;;;;4.80;99.90;;;;;;6210713;23;20283;-83
2023/03/11 04:45:26;;;;;;;;;;;4.80;99.90;;;;;;6210552;23;19900;-83
2023/03/11 04:47:52;;;;;;;;;;;4.90;99.90;;;;;;6210827;23;19933;-83
2023/03/11 04:50:17;;;;;;;;;;;4.90;99.90;;;;;;6210647;23;19908;-83
2023/03/11 04:52:43;;;;;;;;;;;4.90;99.90;;;;;;6210861;23;19899;-82
2023/03/11 04:55:09;;;;;;;;;;;4.90;99.90;;;;;;6211238;23;20359;-83
2023/03/11 04:57:35;;;;;;;;;;;4.90;99.90;;;;;;6210613;23;19900;-83
2023/03/11 05:00:00;;;;;;;;;;;4.90;99.90;;;;;;6210427;23;19904;-82
2023/03/11 05:02:26;;;;;;;;;;;4.90;99.90;;;;;;6210361;23;19900;-84
2023/03/11 05:04:52;;;;;;;;;;;4.90;99.90;;;;;;6210899;23;19899;-84
2023/03/11 05:07:17;;;;;;;;;;;4.90;99.90;;;;;;6210585;23;19923;-84
2023/03/11 05:09:43;;;;;;;;;;;5.00;99.90;;;;;;6210592;23;19900;-82
2023/03/11 05:12:09;;;;;;;;;;;5.00;99.90;;;;;;6211097;23;19910;-84
2023/03/11 05:14:35;;;;;;;;;;;5.00;99.90;;;;;;6211913;23;20288;-84
2023/03/11 05:17:00;;;;;;;;;;;5.00;99.90;;;;;;6212709;23;19903;-83
2023/03/11 05:19:35;;;;;;;;;;;5.00;99.90;;;;;;6212695;23;19916;-83
2023/03/11 05:22:01;;;;;;;;;;;5.30;99.90;;;;;;6212113;23;20422;-84
2023/03/11 05:24:27;;;;;;;;;;;5.00;99.90;;;;;;6211926;23;19942;-83
2023/03/11 05:26:53;;;;;;;;;;;5.10;99.90;;;;;;6211973;23;19900;-83
2023/03/11 05:29:19;;;;;;;;;;;5.00;99.90;;;;;;6212384;23;19911;-83
2023/03/11 05:31:45;;;;;;;;;;;5.00;99.90;;;;;;6212751;23;19908;-82
2023/03/11 05:34:11;;;;;;;;;;;5.00;99.90;;;;;;6213616;23;19939;-83
2023/03/11 05:36:37;;;;;;;;;;;5.10;99.90;;;;;;6212352;23;19907;-83
2023/03/11 05:39:03;;;;;;;;;;;5.10;99.90;;;;;;6212488;23;19946;-82
2023/03/11 05:41:28;;;;;;;;;;;5.10;99.90;;;;;;6211959;23;20233;-84
2023/03/11 05:43:54;;;;;;;;;;;5.10;99.90;;;;;;6185970;23;19904;-83
2023/03/11 05:46:19;;;;;;;;;;;5.10;99.90;;;;;;6212450;23;20347;-83
2023/03/11 05:48:45;;;;;;;;;;;5.10;99.90;;;;;;6212490;23;19947;-82
2023/03/11 05:51:11;;;;;;;;;;;5.10;99.90;;;;;;6213721;23;20392;-83
2023/03/11 05:53:36;;;;;;;;;;;5.20;99.90;;;;;;6212506;23;19935;-83
2023/03/11 05:56:02;;;;;;;;;;;5.20;99.90;;;;;;6212282;23;20349;-83
2023/03/11 05:58:29;;;;;;;;;;;5.10;99.90;;;;;;6211995;23;19938;-83
2023/03/11 06:00:54;;;;;;;;;;;5.20;99.90;;;;;;6212404;23;19904;-83
2023/03/11 06:03:20;;;;;;;;;;;5.20;99.90;;;;;;6212233;23;19946;-83
2023/03/11 06:05:49;;;;;;;;;;;5.20;99.90;;;;;;6211923;23;20241;-82
2023/03/11 06:08:15;;;;;;;;;;;5.20;99.90;;;;;;6213091;23;19946;-83
2023/03/11 06:10:41;;;;;;;;;;;5.20;99.90;;;;;;6212511;23;19961;-83
2023/03/11 06:13:06;;;;;;;;;;;5.20;99.90;;;;;;6211757;23;19954;-83
2023/03/11 06:15:32;;;;;;;;;;;5.20;99.90;;;;;;6185518;23;19900;-82
2023/03/11 06:17:58;;;;;;;;;;;5.20;99.90;;;;;;6211592;23;19900;-83
2023/03/11 06:20:24;;;;;;;;;;;5.20;99.90;;;;;;6211946;23;19930;-82
2023/03/11 06:22:50;;;;;;;;;;;5.50;99.90;;;;;;6211888;23;19900;-83
2023/03/11 06:25:15;;;;;;;;;;;5.20;99.90;;;;;;6212016;23;19934;-82
2023/03/11 06:27:41;;;;;;;;;;;5.20;99.90;;;;;;6211654;23;19903;-82
2023/03/11 06:30:06;;;;;;;;;;;5.20;99.90;;;;;;6211133;23;20119;-83
2023/03/11 06:32:33;;;;;;;;;;;5.20;99.90;;;;;;6211911;23;19947;-83
2023/03/11 06:34:59;;;;;;;;;;;5.20;99.90;;;;;;6211734;23;20320;-83
2023/03/11 06:37:24;;;;;;;;;;;5.20;99.90;;;;;;6211550;23;19954;-83
2023/03/11 06:39:53;;;;;;;;;;;5.20;99.90;;;;;;6211519;23;19900;-83
2023/03/11 06:42:19;;;;;;;;;;;5.10;99.90;;;;;;6211729;23;19900;-83
2023/03/11 06:44:47;;;;;;;;;;;5.10;99.90;;;;;;6211616;23;19900;-83
2023/03/11 06:47:12;;;;;;;;;;;5.20;99.90;;;;;;6212727;23;19900;-83
2023/03/11 06:49:40;;;;;;;;;;;5.50;99.90;;;;;;6211626;23;19904;-83
2023/03/11 06:52:06;;;;;;;;;;;5.20;99.90;;;;;;6211046;23;20328;-83
2023/03/11 06:54:31;;;;;;;;;;;5.20;99.90;;;;;;6210964;23;19903;-83
2023/03/11 06:56:57;;;;;;;;;;;5.30;99.90;;;;;;6211714;23;19900;-83
2023/03/11 06:59:22;;;;;;;;;;;5.30;99.90;;;;;;6211605;23;20237;-83
2023/03/11 07:01:49;;;;;;;;;;;5.30;99.90;;;;;;6212092;23;19903;-82
2023/03/11 07:04:15;;;;;;;;;;;5.30;99.90;;;;;;6211862;23;20383;-83
2023/03/11 07:06:41;;;;;;;;;;;5.30;99.90;;;;;;6211431;23;19908;-83
2023/03/11 07:09:07;;;;;;;;;;;5.20;99.90;;;;;;6210777;23;19900;-83
2023/03/11 07:11:32;;;;;;;;;;;5.30;99.90;;;;;;6211423;23;19934;-82
2023/03/11 07:13:58;;;;;;;;;;;5.30;99.90;;;;;;6184842;23;19907;-83
2023/03/11 07:16:25;;;;;;;;;;;5.30;99.90;;;;;;6211333;23;20034;-83
2023/03/11 07:18:51;;;;;;;;;;;5.30;99.90;;;;;;6211208;23;19907;-83
2023/03/11 07:21:17;;;;;;;;;;;5.40;99.90;;;;;;6212254;23;20339;-83
2023/03/11 07:23:43;;;;;;;;;;;5.40;99.90;;;;;;6210457;23;20339;-83
2023/03/11 07:26:10;;;;;;;;;;;5.40;99.90;;;;;;6211427;23;20234;-83
2023/03/11 07:28:35;;;;;;;;;;;5.40;99.90;;;;;;6211214;23;19970;-83
2023/03/11 07:31:05;;;;;;;;;;;5.40;99.90;;;;;;6211095;23;20360;-83
2023/03/11 07:33:31;;;;;;;;;;;5.50;99.90;;;;;;6211595;23;19960;-83
2023/03/11 07:35:56;;;;;;;;;;;5.50;99.90;;;;;;6210869;23;19982;-83
2023/03/11 07:38:22;;;;;;;;;;;5.50;99.90;;;;;;6210918;23;19899;-82
2023/03/11 07:40:56;;;;;;;;;;;5.50;99.90;;;;;;6212146;23;19946;-83
2023/03/11 07:43:21;;;;;;;;;;;5.60;99.90;;;;;;6210656;23;19904;-82
2023/03/11 07:45:47;;;;;;;;;;;5.60;99.90;;;;;;6209897;23;19987;-83
2023/03/11 07:48:13;;;;;;;;;;;5.60;99.90;;;;;;6182892;23;20329;-83
2023/03/11 07:50:38;;;;;;;;;;;5.60;99.90;;;;;;6211148;23;20233;-83
2023/03/11 07:53:04;;;;;;;;;;;5.60;99.90;;;;;;6211303;23;20321;-83
2023/03/11 07:55:29;;;;;;;;;;;5.70;99.90;;;;;;6210973;23;19907;-82
2023/03/11 07:57:55;;;;;;;;;;;5.70;99.90;;;;;;6211138;23;20288;-83
2023/03/11 08:00:21;;;;;;;;;;;5.80;99.90;;;;;;6211868;23;19969;-84
2023/03/11 08:02:47;;;;;;;;;;;5.80;99.90;;;;;;6211053;23;19900;-85
2023/03/11 08:05:12;;;;;;;;;;;5.80;99.90;;;;;;6210644;23;19900;-86
2023/03/11 08:07:38;;;;;;;;;;;5.80;99.90;;;;;;6210062;23;19927;-86
2023/03/11 08:10:03;;;;;;;;;;;5.30;99.90;;;;;;6159022;23;19907;-86
2023/03/11 08:12:29;;;;;;;;;;;5.80;99.90;;;;;;6210609;23;19903;-86
2023/03/11 08:14:54;;;;;;;;;;;5.80;99.90;;;;;;6210192;23;19908;-86
2023/03/11 08:17:20;;;;;;;;;;;5.90;99.90;;;;;;6185243;23;19900;-85
2023/03/11 08:19:47;;;;;;;;;;;5.80;99.90;;;;;;6183542;23;19908;-85
2023/03/11 08:22:13;;;;;;;;;;;6.50;99.90;;;;;;6211016;23;19903;-85
2023/03/11 08:24:38;;;;;;;;;;;5.90;99.90;;;;;;6209981;23;19907;-86
2023/03/11 08:27:04;;;;;;;;;;;6.10;99.90;;;;;;6209861;23;20213;-85
2023/03/11 08:29:29;;;;;;;;;;;5.90;99.90;;;;;;6211030;23;19900;-85
2023/03/11 08:31:55;;;;;;;;;;;5.90;99.90;;;;;;6210598;23;19907;-86
2023/03/11 08:34:21;;;;;;;;;;;6.00;99.90;;;;;;6212158;23;19942;-86
2023/03/11 08:36:46;;;;;;;;;;;5.80;99.90;;;;;;6210991;23;19945;-86
2023/03/11 08:39:12;;;;;;;;;;;6.40;99.90;;;;;;6184950;23;19935;-87
2023/03/11 08:41:38;;;;;;;;;;;6.50;99.90;;;;;;6210437;23;19907;-86
2023/03/11 08:44:03;;;;;;;;;;;6.10;99.90;;;;;;6214022;23;19934;-85
2023/03/11 08:46:30;;;;;;;;;;;6.20;99.90;;;;;;6210933;23;20321;-86
2023/03/11 08:48:56;;;;;;;;;;;7.50;99.90;;;;;;6214598;23;19900;-86
2023/03/11 08:51:22;;;;;;;;;;;6.60;99.90;;;;;;6213418;23;20001;-85
2023/03/11 08:53:48;;;;;;;;;;;6.50;99.90;;;;;;6212027;23;19983;-86
2023/03/11 08:56:14;;;;;;;;;;;6.80;99.90;;;;;;6213096;23;20224;-85
2023/03/11 08:58:39;;;;;;;;;;;5.60;99.90;;;;;;6212381;23;19970;-85
2023/03/11 09:01:06;;;;;;;;;;;6.50;99.90;;;;;;6212682;23;19904;-86
2023/03/11 09:03:32;;;;;;;;;;;6.60;99.90;;;;;;6212275;23;19904;-84
2023/03/11 09:05:58;;;;;;;;;;;6.60;99.90;;;;;;6212846;23;19904;-85
2023/03/11 09:08:24;;;;;;;;;;;6.70;99.90;;;;;;6213596;23;19907;-85
2023/03/11 09:10:50;;;;;;;;;;;6.70;99.90;;;;;;6213693;23;19908;-85
2023/03/11 09:13:15;;;;;;;;;;;6.70;99.90;;;;;;6212151;23;19911;-86
2023/03/11 09:15:41;;;;;;;;;;;7.90;99.90;;;;;;6212722;23;20007;-86
2023/03/11 09:18:10;;;;;;;;;;;7.50;99.90;;;;;;6212685;23;19900;-87
2023/03/11 09:20:38;;;;;;;;;;;6.80;99.90;;;;;;6212674;23;19907;-87
2023/03/11 09:23:04;;;;;;;;;;;6.90;99.90;;;;;;6212538;23;19899;-92
2023/03/11 09:25:30;;;;;;;;;;;7.00;99.90;;;;;;6213921;23;19906;-88
2023/03/11 09:27:56;;;;;;;;;;;7.00;99.90;;;;;;6212133;23;19942;-84
2023/03/11 09:30:21;;;;;;;;;;;8.70;99.90;;;;;;6213388;23;19907;-87
2023/03/11 09:32:47;;;;;;;;;;;8.90;99.90;;;;;;6212134;23;20003;-88
2023/03/11 09:35:12;;;;;;;;;;;7.10;99.90;;;;;;6212209;23;19899;-87
2023/03/11 09:37:38;;;;;;;;;;;8.80;99.90;;;;;;6211801;23;19923;-85
2023/03/11 09:40:04;;;;;;;;;;;8.40;99.90;;;;;;6212719;23;19929;-88
2023/03/11 09:42:44;;;;;;;;;;;7.20;99.90;;;;;;6211969;23;19975;-86
2023/03/11 09:45:12;;;;;;;;;;;7.30;99.90;;;;;;6212374;23;19906;-87
2023/03/11 09:47:38;;;;;;;;;;;8.60;99.90;;;;;;6211943;23;19914;-88
2023/03/11 09:50:17;;;;;;;;;;;8.40;99.90;;;;;;6212234;23;19900;-86
2023/03/11 09:52:51;;;;;;;;;;;7.40;99.90;;;;;;6212143;23;19950;-85
2023/03/11 09:55:37;;;;;;;;;;;7.50;99.90;;;;;;6211812;23;19900;-87
2023/03/11 09:58:08;;;;;;;;;;;8.10;99.90;;;;;;6210370;23;19931;-84
2023/03/11 10:00:34;;;;;;;;;;;8.80;99.90;;;;;;6211606;23;19907;-87
2023/03/11 10:03:00;;;;;;;;;;;8.30;99.90;;;;;;6212019;23;19904;-86
2023/03/11 10:05:26;;;;;;;;;;;7.50;99.90;;;;;;6212899;23;19900;-90
2023/03/11 10:07:58;;;;;;;;;;;7.90;99.90;;;;;;6212134;23;19938;-88
2023/03/11 10:10:27;;;;;;;;;;;7.90;99.90;;;;;;6212821;23;19910;-86
2023/03/11 10:12:58;;;;;;;;;;;8.50;99.90;;;;;;6212216;23;19926;-84
2023/03/11 10:15:27;;;;;;;;;;;8.00;99.90;;;;;;6212722;23;19900;-84
2023/03/11 10:18:11;;;;;;;;;;;8.10;99.90;;;;;;6212042;23;19904;-85
2023/03/11 10:20:42;;;;;;;;;;;8.10;99.90;;;;;;6211837;23;19907;-85
2023/03/11 10:23:26;;;;;;;;;;;8.20;99.90;;;;;;6211829;23;20388;-84
2023/03/11 10:26:00;;;;;;;;;;;8.20;99.90;;;;;;6211923;23;19910;-86
2023/03/11 10:28:30;;;;;;;;;;;8.20;99.90;;;;;;6212654;23;19910;-87
2023/03/11 10:31:08;;;;;;;;;;;8.30;99.90;;;;;;6212766;23;19926;-85
2023/03/11 10:33:41;;;;;;;;;;;9.40;99.90;;;;;;6211239;23;20240;-85
2023/03/11 10:36:11;;;;;;;;;;;8.30;99.90;;;;;;6210031;23;19926;-83
2023/03/11 10:38:41;;;;;;;;;;;8.30;99.90;;;;;;6211730;23;19907;-85
2023/03/11 10:41:13;;;;;;;;;;;8.40;99.90;;;;;;6211619;23;19902;-84
2023/03/11 10:43:42;;;;;;;;;;;8.50;99.90;;;;;;6211592;23;19907;-84
2023/03/11 10:46:24;;;;;;;;;;;8.70;99.90;;;;;;6211584;23;19954;-84
2023/03/11 10:48:49;;;;;;;;;;;8.60;99.90;;;;;;6211852;23;20494;-86
2023/03/11 10:51:21;;;;;;;;;;;9.10;99.90;;;;;;6211273;23;20222;-88
2023/03/11 10:53:51;;;;;;;;;;;8.80;99.90;;;;;;6210699;23;19934;-85
2023/03/11 10:56:31;;;;;;;;;;;9.10;99.90;;;;;;6211180;23;19969;-87
2023/03/11 10:58:57;;;;;;;;;;;8.80;99.90;;;;;;6212565;23;19900;-85
2023/03/11 11:01:23;;;;;;;;;;;8.80;99.90;;;;;;6211312;23;19904;-85
2023/03/11 11:03:50;;;;;;;;;;;9.00;99.90;;;;;;6211613;23;19907;-87
2023/03/11 11:06:21;;;;;;;;;;;9.10;99.90;;;;;;6211371;23;19904;-87
2023/03/11 11:08:47;;;;;;;;;;;9.10;99.90;;;;;;6210915;23;19900;-87
2023/03/11 11:11:20;;;;;;;;;;;9.60;99.90;;;;;;6206632;23;20292;-84
2023/03/11 11:13:54;;;;;;;;;;;9.20;99.90;;;;;;6207372;23;20395;-84
2023/03/11 11:16:20;;;;;;;;;;;9.20;99.90;;;;;;6208229;23;19927;-83
2023/03/11 11:18:47;;;;;;;;;;;9.70;99.90;;;;;;6208759;23;19930;-86
2023/03/11 11:21:14;;;;;;;;;;;9.30;99.90;;;;;;6207136;23;19907;-86
2023/03/11 11:23:41;;;;;;;;;;;9.60;99.90;;;;;;6210004;23;19935;-88
2023/03/11 11:26:19;;;;;;;;;;;9.50;99.90;;;;;;6206863;23;19904;-85
2023/03/11 11:28:45;;;;;;;;;;;9.50;99.90;;;;;;6210731;23;19935;-86
2023/03/11 11:31:22;;;;;;;;;;;9.70;99.90;;;;;;6211147;23;19915;-85
2023/03/11 11:33:49;;;;;;;;;;;9.60;99.90;;;;;;6211278;23;19974;-86
2023/03/11 11:36:15;;;;;;;;;;;9.70;99.90;;;;;;6217238;23;19907;-86
2023/03/11 11:38:40;;;;;;;;;;;9.60;99.90;;;;;;6216629;23;19974;-85
2023/03/11 11:41:09;;;;;;;;;;;9.80;99.90;;;;;;6217708;23;19907;-85
2023/03/11 11:43:45;;;;;;;;;;;9.80;99.90;;;;;;6211339;23;19906;-86
2023/03/11 11:46:21;;;;;;;;;;;9.80;99.90;;;;;;6210759;23;19907;-90
2023/03/11 11:48:47;;;;;;;;;;;9.80;99.90;;;;;;6210650;23;19907;-87
2023/03/11 11:51:17;;;;;;;;;;;10.10;99.90;;;;;;6210678;23;19919;-87
2023/03/11 11:53:42;;;;;;;;;;;10.20;99.90;;;;;;6208927;23;19903;-91
2023/03/11 11:56:08;;;;;;;;;;;10.00;99.90;;;;;;6211279;23;20241;-85
2023/03/11 11:58:34;;;;;;;;;;;9.90;99.90;;;;;;6210922;23;19946;-85
2023/03/11 12:01:18;;;;;;;;;;;10.00;99.90;;;;;;6185354;23;19927;-88
2023/03/11 12:03:48;;;;;;;;;;;10.10;99.90;;;;;;6211275;23;19946;-90
2023/03/11 12:06:18;;;;;;;;;;;10.20;99.90;;;;;;6184278;23;19923;-87
2023/03/11 12:08:53;;;;;;;;;;;10.20;99.90;;;;;;6211392;23;19900;-88
2023/03/11 12:11:38;;;;;;;;;;;10.20;99.90;;;;;;6209988;23;19907;-84
2023/03/11 12:14:04;;;;;;;;;;;10.60;99.90;;;;;;6135601;23;20317;-84
2023/03/11 12:16:39;;;;;;;;;;;10.30;99.90;;;;;;6211666;23;19900;-84
2023/03/11 12:19:13;;;;;;;;;;;10.40;99.90;;;;;;6211932;23;19935;-85
2023/03/11 12:21:41;;;;;;;;;;;10.50;99.90;;;;;;6209720;23;19900;-85
2023/03/11 12:24:16;;;;;;;;;;;10.50;99.90;;;;;;6210831;23;19900;-84
2023/03/11 12:26:43;;;;;;;;;;;10.60;99.90;;;;;;6210350;23;19986;-86
2023/03/11 12:29:18;;;;;;;;;;;10.50;99.90;;;;;;6210036;23;20317;-85
2023/03/11 12:31:44;;;;;;;;;;;10.60;99.90;;;;;;6210741;23;19908;-84
2023/03/11 12:34:11;;;;;;;;;;;10.60;99.90;;;;;;6210398;23;19900;-84
2023/03/11 12:36:38;;;;;;;;;;;10.70;99.90;;;;;;6210030;23;19900;-84
2023/03/11 12:39:06;;;;;;;;;;;10.80;99.90;;;;;;6212107;23;20003;-84
2023/03/11 12:41:38;;;;;;;;;;;10.80;99.90;;;;;;6211325;23;20039;-84
2023/03/11 12:44:18;;;;;;;;;;;10.80;99.90;;;;;;6211376;23;19947;-84
2023/03/11 12:46:56;;;;;;;;;;;10.70;99.90;;;;;;6210485;23;19900;-84
2023/03/11 12:49:25;;;;;;;;;;;10.70;99.90;;;;;;6210258;23;19939;-84
2023/03/11 12:52:02;;;;;;;;;;;10.90;99.90;;;;;;6210292;23;20352;-84
2023/03/11 12:54:29;;;;;;;;;;;10.80;99.90;;;;;;6209258;23;19903;-84
2023/03/11 12:57:00;;;;;;;;;;;10.90;99.90;;;;;;6210137;23;19900;-84
2023/03/11 12:59:40;;;;;;;;;;;11.00;99.90;;;;;;6210059;23;19997;-85
2023/03/11 13:02:09;;;;;;;;;;;11.00;99.90;;;;;;6211734;23;19930;-85
2023/03/11 13:04:43;;;;;;;;;;;11.10;99.90;;;;;;6211600;23;19979;-85
2023/03/11 13:07:20;;;;;;;;;;;11.10;99.90;;;;;;6210132;23;20245;-85
2023/03/11 13:09:58;;;;;;;;;;;11.20;99.90;;;;;;6210922;23;19900;-84
2023/03/11 13:12:36;;;;;;;;;;;11.30;99.90;;;;;;6210400;23;20321;-84
2023/03/11 13:15:16;;;;;;;;;;;11.40;99.90;;;;;;6210181;23;19922;-84
2023/03/11 13:17:54;;;;;;;;;;;11.50;99.90;;;;;;6210132;23;19934;-85
2023/03/11 13:20:40;;;;;;;;;;;11.50;99.90;;;;;;6210924;23;20351;-85
2023/03/11 13:23:08;;;;;;;;;;;11.60;99.90;;;;;;6211643;23;20331;-84
2023/03/11 13:25:41;;;;;;;;;;;11.70;99.90;;;;;;6184481;23;20288;-87
2023/03/11 13:28:16;;;;;;;;;;;11.60;99.90;;;;;;6211296;23;19904;-88
2023/03/11 13:30:48;;;;;;;;;;;11.80;99.90;;;;;;6209779;23;19911;-84
2023/03/11 13:33:37;;;;;;;;;;;11.70;99.90;;;;;;6210010;23;19954;-83
2023/03/11 13:36:09;;;;;;;;;;;11.70;99.90;;;;;;6210514;23;19979;-84
2023/03/11 13:38:59;;;;;;;;;;;11.70;99.90;;;;;;6212638;23;19983;-90
2023/03/11 13:41:35;;;;;;;;;;;11.70;99.90;;;;;;6212014;23;19900;-84
2023/03/11 13:44:36;;;;;;;;;;;11.60;99.90;;;;;;6211637;23;19986;-86
2023/03/11 13:47:04;;;;;;;;;;;11.70;99.90;;;;;;6061805;23;19901;-85
2023/03/11 13:49:30;;;;;;;;;;;11.60;99.90;;;;;;6183778;23;19915;-86
2023/03/11 13:51:56;;;;;;;;;;;11.50;99.90;;;;;;6212980;23;20245;-84
2023/03/11 13:54:40;;;;;;;;;;;11.50;99.90;;;;;;6209179;23;19923;-83
2023/03/11 13:57:12;;;;;;;;;;;11.60;99.90;;;;;;6214043;23;19926;-87
2023/03/11 13:59:37;;;;;;;;;;;11.70;99.90;;;;;;6211945;23;19899;-84
2023/03/11 14:02:03;;;;;;;;;;;11.80;99.90;;;;;;6211929;23;19931;-84
2023/03/11 14:04:30;;;;;;;;;;;11.90;99.90;;;;;;6211897;23;19900;-85
2023/03/11 14:06:56;;;;;;;;;;;11.90;99.90;;;;;;6181285;23;20287;-85
2023/03/11 14:09:22;;;;;;;;;;;12.20;99.90;;;;;;6206804;23;19948;-84
2023/03/11 14:11:48;;;;;;;;;;;12.40;99.90;;;;;;6209158;23;19991;-83
2023/03/11 14:14:30;;;;;;;;;;;12.50;99.90;;;;;;6207185;23;19989;-84
2023/03/11 14:16:57;;;;;;;;;;;12.60;99.90;;;;;;6208322;23;19900;-84
2023/03/11 14:19:22;;;;;;;;;;;12.70;99.90;;;;;;6207523;23;19958;-85
2023/03/11 14:21:50;;;;;;;;;;;12.70;99.90;;;;;;6210438;23;19904;-84
2023/03/11 14:24:16;;;;;;;;;;;12.80;99.90;;;;;;6211059;23;19900;-85
2023/03/11 14:26:43;;;;;;;;;;;12.80;99.90;;;;;;6184315;23;20373;-84
2023/03/11 14:29:15;;;;;;;;;;;12.80;99.90;;;;;;6212204;23;19974;-84
2023/03/11 14:31:42;;;;;;;;;;;12.80;99.90;;;;;;6213783;23;19974;-85
2023/03/11 14:34:14;;;;;;;;;;;12.80;99.90;;;;;;6213822;23;19900;-84